sensor_id;sensor_type;location;lat;lon;timestamp;P1;durP1;ratioP1;P2;durP2;ratioP2
1370;SDS011;14306;49.942;11.570;2023-09-30T00:02:27;30.80;;;12.30;;
1370;SDS011;14306;49.942;11.570;2023-09-30T00:04:56;30.57;;;13.97;;
1370;SDS011;14306;49.942;11.570;2023-09-30T00:07:24;25.63;;;11.70;;
1370;SDS011;14306;49.942;11.570;2023-09-30T00:09:53;31.07;;;12.77;;
1370;SDS011;14306;49.942;11.570;2023-09-30T00:12:21;31.80;;;12.60;;
1370;SDS011;14306;49.942;11.570;2023-09-30T00:14:49;30.33;;;10.60;;
1370;SDS011;14306;49.942;11.570;2023-09-30T00:17:17;25.80;;;10.90;;
1370;SDS011;14306;49.942;11.570;2023-09-30T00:19:46;36.60;;;13.33;;
1370;SDS011;14306;49.942;11.570;2023-09-30T00:22:14;26.07;;;11.30;;
1370;SDS011;14306;49.942;11.570;2023-09-30T00:24:43;31.20;;;11.83;;
1370;SDS011;14306;49.942;11.570;2023-09-30T00:27:11;30.57;;;12.50;;
1370;SDS011;14306;49.942;11.570;2023-09-30T00:29:41;28.03;;;12.27;;
1370;SDS011;14306;49.942;11.570;2023-09-30T00:32:10;29.17;;;12.90;;
1370;SDS011;14306;49.942;11.570;2023-09-30T00:34:38;33.07;;;11.90;;
1370;SDS011;14306;49.942;11.570;2023-09-30T00:37:09;27.93;;;11.90;;
1370;SDS011;14306;49.942;11.570;2023-09-30T00:39:37;25.40;;;10.60;;
1370;SDS011;14306;49.942;11.570;2023-09-30T00:42:05;22.40;;;10.30;;
1370;SDS011;14306;49.942;11.570;2023-09-30T00:44:34;27.60;;;11.83;;
1370;SDS011;14306;49.942;11.570;2023-09-30T00:47:02;31.03;;;11.10;;
1370;SDS011;14306;49.942;11.570;2023-09-30T00:49:32;28.77;;;12.03;;
1370;SDS011;14306;49.942;11.570;2023-09-30T00:52:01;25.97;;;10.47;;
1370;SDS011;14306;49.942;11.570;2023-09-30T00:54:32;29.67;;;11.10;;
1370;SDS011;14306;49.942;11.570;2023-09-30T00:57:02;28.23;;;10.80;;
1370;SDS011;14306;49.942;11.570;2023-09-30T00:59:30;26.10;;;10.43;;
1370;SDS011;14306;49.942;11.570;2023-09-30T01:01:59;26.43;;;9.90;;
1370;SDS011;14306;49.942;11.570;2023-09-30T01:04:28;27.13;;;11.60;;
1370;SDS011;14306;49.942;11.570;2023-09-30T01:06:56;21.60;;;10.37;;
1370;SDS011;14306;49.942;11.570;2023-09-30T01:09:25;22.10;;;9.60;;
1370;SDS011;14306;49.942;11.570;2023-09-30T01:11:55;26.70;;;10.20;;
1370;SDS011;14306;49.942;11.570;2023-09-30T01:14:24;26.90;;;10.80;;
1370;SDS011;14306;49.942;11.570;2023-09-30T01:16:53;24.67;;;9.50;;
1370;SDS011;14306;49.942;11.570;2023-09-30T01:19:22;25.60;;;10.13;;
1370;SDS011;14306;49.942;11.570;2023-09-30T01:21:53;24.20;;;10.60;;
1370;SDS011;14306;49.942;11.570;2023-09-30T01:24:25;28.30;;;9.67;;
1370;SDS011;14306;49.942;11.570;2023-09-30T01:26:54;24.43;;;9.77;;
1370;SDS011;14306;49.942;11.570;2023-09-30T01:29:22;22.87;;;10.40;;
1370;SDS011;14306;49.942;11.570;2023-09-30T01:31:52;24.17;;;9.03;;
1370;SDS011;14306;49.942;11.570;2023-09-30T01:34:21;23.83;;;10.87;;
1370;SDS011;14306;49.942;11.570;2023-09-30T01:36:49;26.33;;;9.47;;
1370;SDS011;14306;49.942;11.570;2023-09-30T01:39:19;21.87;;;9.10;;
1370;SDS011;14306;49.942;11.570;2023-09-30T01:41:48;27.07;;;10.20;;
1370;SDS011;14306;49.942;11.570;2023-09-30T01:44:16;22.63;;;10.60;;
1370;SDS011;14306;49.942;11.570;2023-09-30T01:46:44;28.03;;;11.37;;
1370;SDS011;14306;49.942;11.570;2023-09-30T01:49:12;24.60;;;11.13;;
1370;SDS011;14306;49.942;11.570;2023-09-30T01:51:40;20.73;;;9.50;;
1370;SDS011;14306;49.942;11.570;2023-09-30T01:54:08;24.23;;;10.33;;
1370;SDS011;14306;49.942;11.570;2023-09-30T01:56:39;20.60;;;9.93;;
1370;SDS011;14306;49.942;11.570;2023-09-30T01:59:07;28.23;;;11.73;;
1370;SDS011;14306;49.942;11.570;2023-09-30T02:01:35;26.07;;;9.40;;
1370;SDS011;14306;49.942;11.570;2023-09-30T02:04:03;20.20;;;9.70;;
1370;SDS011;14306;49.942;11.570;2023-09-30T02:06:33;26.03;;;10.90;;
1370;SDS011;14306;49.942;11.570;2023-09-30T02:09:02;24.83;;;9.77;;
1370;SDS011;14306;49.942;11.570;2023-09-30T02:11:35;20.43;;;9.70;;
1370;SDS011;14306;49.942;11.570;2023-09-30T02:14:05;24.23;;;9.40;;
1370;SDS011;14306;49.942;11.570;2023-09-30T02:16:34;25.33;;;9.80;;
1370;SDS011;14306;49.942;11.570;2023-09-30T02:19:02;31.87;;;9.57;;
1370;SDS011;14306;49.942;11.570;2023-09-30T02:21:30;25.20;;;9.00;;
1370;SDS011;14306;49.942;11.570;2023-09-30T02:23:59;19.60;;;9.90;;
1370;SDS011;14306;49.942;11.570;2023-09-30T02:26:27;20.40;;;9.63;;
1370;SDS011;14306;49.942;11.570;2023-09-30T02:28:55;26.73;;;10.43;;
1370;SDS011;14306;49.942;11.570;2023-09-30T02:31:25;22.83;;;11.13;;
1370;SDS011;14306;49.942;11.570;2023-09-30T02:33:54;22.20;;;9.17;;
1370;SDS011;14306;49.942;11.570;2023-09-30T02:36:23;22.90;;;10.47;;
1370;SDS011;14306;49.942;11.570;2023-09-30T02:38:51;24.20;;;11.27;;
1370;SDS011;14306;49.942;11.570;2023-09-30T02:41:20;24.07;;;10.00;;
1370;SDS011;14306;49.942;11.570;2023-09-30T02:43:48;24.20;;;9.23;;
1370;SDS011;14306;49.942;11.570;2023-09-30T02:46:16;11.80;;;6.87;;
1370;SDS011;14306;49.942;11.570;2023-09-30T02:48:46;12.97;;;6.60;;
1370;SDS011;14306;49.942;11.570;2023-09-30T02:51:14;17.90;;;7.10;;
1370;SDS011;14306;49.942;11.570;2023-09-30T02:53:43;16.07;;;6.40;;
1370;SDS011;14306;49.942;11.570;2023-09-30T02:56:11;20.73;;;6.53;;
1370;SDS011;14306;49.942;11.570;2023-09-30T02:58:40;15.87;;;6.40;;
1370;SDS011;14306;49.942;11.570;2023-09-30T03:01:08;19.10;;;6.50;;
1370;SDS011;14306;49.942;11.570;2023-09-30T03:03:37;18.37;;;6.73;;
1370;SDS011;14306;49.942;11.570;2023-09-30T03:06:07;20.47;;;6.73;;
1370;SDS011;14306;49.942;11.570;2023-09-30T03:08:37;16.00;;;5.50;;
1370;SDS011;14306;49.942;11.570;2023-09-30T03:11:05;12.87;;;5.83;;
1370;SDS011;14306;49.942;11.570;2023-09-30T03:13:33;14.10;;;5.17;;
1370;SDS011;14306;49.942;11.570;2023-09-30T03:16:02;11.50;;;5.00;;
1370;SDS011;14306;49.942;11.570;2023-09-30T03:18:30;8.23;;;3.90;;
1370;SDS011;14306;49.942;11.570;2023-09-30T03:20:59;15.83;;;5.47;;
1370;SDS011;14306;49.942;11.570;2023-09-30T03:23:30;8.67;;;3.80;;
1370;SDS011;14306;49.942;11.570;2023-09-30T03:25:58;10.00;;;3.47;;
1370;SDS011;14306;49.942;11.570;2023-09-30T03:28:27;9.00;;;3.83;;
1370;SDS011;14306;49.942;11.570;2023-09-30T03:30:55;9.80;;;4.13;;
1370;SDS011;14306;49.942;11.570;2023-09-30T03:33:24;11.80;;;4.30;;
1370;SDS011;14306;49.942;11.570;2023-09-30T03:35:53;11.43;;;3.93;;
1370;SDS011;14306;49.942;11.570;2023-09-30T03:38:21;9.87;;;3.67;;
1370;SDS011;14306;49.942;11.570;2023-09-30T03:40:51;8.90;;;5.37;;
1370;SDS011;14306;49.942;11.570;2023-09-30T03:43:21;6.60;;;3.60;;
1370;SDS011;14306;49.942;11.570;2023-09-30T03:45:51;7.30;;;3.10;;
1370;SDS011;14306;49.942;11.570;2023-09-30T03:48:20;9.90;;;3.57;;
1370;SDS011;14306;49.942;11.570;2023-09-30T03:50:47;6.60;;;3.00;;
1370;SDS011;14306;49.942;11.570;2023-09-30T03:53:15;10.63;;;4.00;;
1370;SDS011;14306;49.942;11.570;2023-09-30T03:55:43;6.63;;;3.13;;
1370;SDS011;14306;49.942;11.570;2023-09-30T03:58:13;6.40;;;3.00;;
1370;SDS011;14306;49.942;11.570;2023-09-30T04:00:41;6.20;;;2.80;;
